Horizon Kodiak — KGTZ — position and weather

sailwx.info

Track history (hours):
 
Tides and Currents Weather Stations Pressure Air Temp Water Temp Dewpoint Dewpoint Depression Visibility Wind Speed Wind Dir Waves Ship Positions

Horizon Kodiak

More information available from US FCC via Universal Licensing System and Coast Guard Vessel Documentation Center.

Last reported at 2014-Sep-19 12:00 UTC. Time now 2014-Sep-21 20:13 UTC.
Position N 52°42' W 133°18'.

Type: Cargo ship. MMSI: 366793000.

Wind from 220 at 20 knots

Waves 2.5 meters (8 feet), 3 second period

Barometer 1007.8 mb
Air temperature 15.0 ° C
Visibility: greater than 10.8 NM
Dewpoint 12.1 ° C
Water temperature 16.7 ° C

Date/timePositionNaut miles runAvg speedWind from/ knotsBaromVisibWave heightAir tempDewpointWater temp
2014-Sep-19 12:00N 52°42' W 133°18'34118.5 220 / 201007.810.8 2.515.012.116.7
2014-Sep-18 17:33N 49°05' W 126°20'2019.6
2014-Sep-18 16:33N 48°53' W 125°56'1919.4
2014-Sep-18 15:33N 48°42' W 125°32'1919.0
2014-Sep-18 14:33N 48°31' W 125°08'1919.4
2014-Sep-18 13:34N 48°30' W 124°39'2019.8
2014-Sep-18 12:33N 48°22' W 124°12'2120.5
2014-Sep-18 11:33N 48°16' W 123°42'1616.4
2014-Sep-18 10:33N 48°09' W 123°20'2019.1
2014-Sep-18 09:31N 48°12' W 122°50'1919.3
2014-Sep-18 08:33N 47°57' W 122°33'1818.4
2014-Sep-18 07:33N 47°39' W 122°28'1818.2
2014-Sep-18 06:33N 47°21' W 122°24'5 5.3
2014-Sep-18 05:34N 47°16' W 122°25'0 0.0
2014-Sep-18 04:34N 47°16' W 122°25'0 0.0
2014-Sep-18 03:32N 47°16' W 122°25'0 0.0
2014-Sep-18 02:32N 47°16' W 122°25'0 0.0
2014-Sep-18 01:32N 47°16' W 122°25'0 0.0
2014-Sep-18 00:32N 47°16' W 122°25'0 0.0
2014-Sep-17 23:32N 47°16' W 122°25'0 0.0
2014-Sep-17 22:32N 47°16' W 122°25'2 0.1
2014-Sep-17 06:30N 47°18' W 122°27'1414.9
2014-Sep-17 05:33N 47°32' W 122°26'1919.2
2014-Sep-17 04:33N 47°51' W 122°28'1919.1
2014-Sep-17 03:33N 48°08' W 122°42'1919.2
2014-Sep-17 02:33N 48°11' W 123°10'1615.6
2014-Sep-17 01:33N 48°13' W 123°34'1818.2
2014-Sep-17 00:33N 48°15' W 124°01'1818.3
2014-Sep-16 23:33N 48°23' W 124°25'1817.9
2014-Sep-16 22:33N 48°29' W 124°51'1818.5
2014-Sep-16 21:33N 48°29' W 125°19'1817.9
2014-Sep-16 20:33N 48°34' W 125°45'1818.5
2014-Sep-16 19:33N 48°44' W 126°08'13317.6
2014-Sep-16 12:00N 49°42' W 129°12'33918.8 360 / 51011.010.8 0.513.310.517.4
2014-Sep-15 18:00N 51°36' W 137°36'11719.5 200 / 131011.010.8 1.016.715.7-16.1
2014-Sep-15 12:00N 52°12' W 140°36'33318.5 200 / 121011.8 5.4 1.512.810.915.9
2014-Sep-14 18:00N 53°12' W 149°36'   200 / 241005.510.8 3.013.912.9-13.9
Track history (hours):
 
Tides and Currents Weather Stations Pressure Air Temp Water Temp Dewpoint Dewpoint Depression Visibility Wind Speed Wind Dir Waves Ship Positions

Horizon Kodiak

More information available from US FCC via Universal Licensing System and Coast Guard Vessel Documentation Center.

Last reported at 2014-Sep-19 12:00 UTC. Time now 2014-Sep-21 20:13 UTC.
Position N 52°42' W 133°18'.

Type: Cargo ship. MMSI: 366793000.

Wind from 220 at 20 knots

Waves 2.5 meters (8 feet), 3 second period

Barometer 1007.8 mb
Air temperature 15.0 ° C
Visibility: greater than 10.8 NM
Dewpoint 12.1 ° C
Water temperature 16.7 ° C

Date/timePositionNaut miles runAvg speedWind from/ knotsBaromVisibWave heightAir tempDewpointWater temp
2014-Sep-19 12:00N 52°42' W 133°18'34118.5 220 / 201007.810.8 2.515.012.116.7
2014-Sep-18 17:33N 49°05' W 126°20'2019.6
2014-Sep-18 16:33N 48°53' W 125°56'1919.4
2014-Sep-18 15:33N 48°42' W 125°32'1919.0
2014-Sep-18 14:33N 48°31' W 125°08'1919.4
2014-Sep-18 13:34N 48°30' W 124°39'2019.8
2014-Sep-18 12:33N 48°22' W 124°12'2120.5
2014-Sep-18 11:33N 48°16' W 123°42'1616.4
2014-Sep-18 10:33N 48°09' W 123°20'2019.1
2014-Sep-18 09:31N 48°12' W 122°50'1919.3
2014-Sep-18 08:33N 47°57' W 122°33'1818.4
2014-Sep-18 07:33N 47°39' W 122°28'1818.2
2014-Sep-18 06:33N 47°21' W 122°24'5 5.3
2014-Sep-18 05:34N 47°16' W 122°25'0 0.0
2014-Sep-18 04:34N 47°16' W 122°25'0 0.0
2014-Sep-18 03:32N 47°16' W 122°25'0 0.0
2014-Sep-18 02:32N 47°16' W 122°25'0 0.0
2014-Sep-18 01:32N 47°16' W 122°25'0 0.0
2014-Sep-18 00:32N 47°16' W 122°25'0 0.0
2014-Sep-17 23:32N 47°16' W 122°25'0 0.0
2014-Sep-17 22:32N 47°16' W 122°25'2 0.1
2014-Sep-17 06:30N 47°18' W 122°27'1414.9
2014-Sep-17 05:33N 47°32' W 122°26'1919.2
2014-Sep-17 04:33N 47°51' W 122°28'1919.1
2014-Sep-17 03:33N 48°08' W 122°42'1919.2
2014-Sep-17 02:33N 48°11' W 123°10'1615.6
2014-Sep-17 01:33N 48°13' W 123°34'1818.2
2014-Sep-17 00:33N 48°15' W 124°01'1818.3
2014-Sep-16 23:33N 48°23' W 124°25'1817.9
2014-Sep-16 22:33N 48°29' W 124°51'1818.5
2014-Sep-16 21:33N 48°29' W 125°19'1817.9
2014-Sep-16 20:33N 48°34' W 125°45'1818.5
2014-Sep-16 19:33N 48°44' W 126°08'13317.6
2014-Sep-16 12:00N 49°42' W 129°12'33918.8 360 / 51011.010.8 0.513.310.517.4
2014-Sep-15 18:00N 51°36' W 137°36'11719.5 200 / 131011.010.8 1.016.715.7-16.1
2014-Sep-15 12:00N 52°12' W 140°36'33318.5 200 / 121011.8 5.4 1.512.810.915.9
2014-Sep-14 18:00N 53°12' W 149°36'   200 / 241005.510.8 3.013.912.9-13.9

Dump ship's entire track history